Time,TemperatureF,DewpointF,PressureIn,WindDirection,WindDirectionDegrees,WindSpeedMPH,WindSpeedGustMPH,Humidity,HourlyPrecipIn,Conditions,Clouds,dailyrainin,SolarRadiationWatts/m^2,SoftwareType,DateUTC
2013-09-27 00:00:00,59.0,49.0,-100.00,ESE,112,3.0,-999.0,68,-99.99,,,-99.99,0.000000,,2013-09-27 04:00:00,
2013-09-27 00:44:00,59.0,49.0,-100.00,ESE,112,3.0,-999.0,68,-99.99,,,-99.99,0.000000,,2013-09-27 04:44:00,
2013-09-27 00:54:00,59.0,49.0,-100.00,ESE,112,3.0,-999.0,68,-99.99,,,-99.99,0.000000,,2013-09-27 04:54:00,
2013-09-27 01:00:00,56.0,47.0,-100.00,SE,135,2.0,-999.0,71,-99.99,,,-99.99,0.000000,,2013-09-27 05:00:00,
2013-09-27 01:43:00,56.0,47.0,-100.00,SE,135,2.0,-999.0,71,-99.99,,,-99.99,0.000000,,2013-09-27 05:43:00,
2013-09-27 01:52:00,56.0,47.0,-100.00,SE,135,2.0,-999.0,71,-99.99,,,-99.99,0.000000,,2013-09-27 05:52:00,
2013-09-27 02:00:00,55.0,45.0,-100.00,SE,135,1.0,-999.0,71,-99.99,,,-99.99,0.000000,,2013-09-27 06:00:00,
2013-09-27 02:43:00,55.0,45.0,-100.00,SE,135,1.0,-999.0,71,-99.99,,,-99.99,0.000000,,2013-09-27 06:43:00,
2013-09-27 02:52:00,55.0,45.0,-100.00,SE,135,1.0,-999.0,71,-99.99,,,-99.99,0.000000,,2013-09-27 06:52:00,
2013-09-27 03:00:00,50.0,44.0,-100.00,SSE,157,0.0,-999.0,80,-99.99,,,-99.99,0.000000,,2013-09-27 07:00:00,
2013-09-27 03:44:00,50.0,44.0,-100.00,SSE,157,0.0,-999.0,80,-99.99,,,-99.99,0.000000,,2013-09-27 07:44:00,
2013-09-27 03:53:00,50.0,44.0,-100.00,SSE,157,0.0,-999.0,80,-99.99,,,-99.99,0.000000,,2013-09-27 07:53:00,
2013-09-27 04:00:00,44.0,43.0,-100.00,South,180,0.0,-999.0,96,-99.99,,,-99.99,0.000000,,2013-09-27 08:00:00,
2013-09-27 04:42:00,44.0,43.0,-100.00,South,180,0.0,-999.0,96,-99.99,,,-99.99,0.000000,,2013-09-27 08:42:00,
2013-09-27 04:52:00,44.0,43.0,-100.00,South,180,0.0,-999.0,96,-99.99,,,-99.99,0.000000,,2013-09-27 08:52:00,
2013-09-27 06:00:00,43.0,43.0,-100.00,SSE,157,1.0,-999.0,101,-99.99,,,-99.99,0.000000,,2013-09-27 10:00:00,
2013-09-27 06:42:00,43.0,43.0,-100.00,SSE,157,1.0,-999.0,101,-99.99,,,-99.99,0.000000,,2013-09-27 10:42:00,
2013-09-27 06:53:00,43.0,43.0,-100.00,SSE,157,1.0,-999.0,101,-99.99,,,-99.99,0.000000,,2013-09-27 10:53:00,
2013-09-27 07:00:00,49.0,46.0,-100.00,SE,135,2.0,-999.0,86,-99.99,,,-99.99,0.000000,,2013-09-27 11:00:00,
2013-09-27 07:43:00,49.0,46.0,-100.00,SE,135,2.0,-999.0,86,-99.99,,,-99.99,0.000000,,2013-09-27 11:43:00,
2013-09-27 07:52:00,49.0,46.0,-100.00,SE,135,2.0,-999.0,86,-99.99,,,-99.99,0.000000,,2013-09-27 11:52:00,
2013-09-27 08:00:00,53.0,45.0,-100.00,SE,135,3.0,-999.0,74,-99.99,,,-99.99,5.800000,,2013-09-27 12:00:00,
2013-09-27 08:42:00,53.0,45.0,-100.00,SE,135,3.0,-999.0,74,-99.99,,,-99.99,5.800000,,2013-09-27 12:42:00,
2013-09-27 08:52:00,53.0,45.0,-100.00,SE,135,3.0,-999.0,74,-99.99,,,-99.99,5.800000,,2013-09-27 12:52:00,
2013-09-27 09:00:00,56.0,47.0,-100.00,SSE,157,2.0,-999.0,73,-99.99,,,-99.99,124.120003,,2013-09-27 13:00:00,
2013-09-27 09:42:00,56.0,47.0,-100.00,SSE,157,2.0,-999.0,73,-99.99,,,-99.99,124.120003,,2013-09-27 13:42:00,
2013-09-27 09:53:00,56.0,47.0,-100.00,SSE,157,2.0,-999.0,73,-99.99,,,-99.99,124.120003,,2013-09-27 13:53:00,
2013-09-27 10:00:00,62.0,50.0,-100.00,SSE,157,4.0,-999.0,65,-99.99,,,-99.99,301.600006,,2013-09-27 14:00:00,
2013-09-27 10:42:00,62.0,50.0,-100.00,SSE,157,4.0,-999.0,65,-99.99,,,-99.99,301.600006,,2013-09-27 14:42:00,
2013-09-27 10:52:00,62.0,50.0,-100.00,SSE,157,4.0,-999.0,65,-99.99,,,-99.99,301.600006,,2013-09-27 14:52:00,
2013-09-27 12:00:00,71.0,51.0,-100.00,SE,135,6.0,-999.0,49,-99.99,,,-99.99,605.520020,,2013-09-27 16:00:00,
2013-09-27 12:44:00,71.0,51.0,-100.00,SE,135,6.0,-999.0,49,-99.99,,,-99.99,605.520020,,2013-09-27 16:44:00,
2013-09-27 12:53:00,71.0,51.0,-100.00,SE,135,6.0,-999.0,49,-99.99,,,-99.99,605.520020,,2013-09-27 16:53:00,
2013-09-27 14:00:00,76.0,50.0,-100.00,ESE,112,5.0,-999.0,40,-99.99,,,-99.99,733.119995,,2013-09-27 18:00:00,
2013-09-27 14:43:00,76.0,50.0,-100.00,ESE,112,5.0,-999.0,40,-99.99,,,-99.99,733.119995,,2013-09-27 18:43:00,
2013-09-27 14:52:00,76.0,50.0,-100.00,ESE,112,5.0,-999.0,40,-99.99,,,-99.99,733.119995,,2013-09-27 18:52:00,
2013-09-27 15:00:00,78.0,49.0,-100.00,ESE,112,5.0,-999.0,36,-99.99,,,-99.99,697.159973,,2013-09-27 19:00:00,
2013-09-27 15:43:00,78.0,49.0,-100.00,ESE,112,5.0,-999.0,36,-99.99,,,-99.99,697.159973,,2013-09-27 19:43:00,
2013-09-27 15:53:00,78.0,49.0,-100.00,ESE,112,5.0,-999.0,36,-99.99,,,-99.99,697.159973,,2013-09-27 19:53:00,
2013-09-27 16:00:00,79.0,48.0,-100.00,ESE,112,6.0,-999.0,33,-99.99,,,-99.99,584.640015,,2013-09-27 20:00:00,
2013-09-27 16:43:00,79.0,48.0,-100.00,ESE,112,6.0,-999.0,33,-99.99,,,-99.99,584.640015,,2013-09-27 20:43:00,
2013-09-27 16:52:00,79.0,48.0,-100.00,ESE,112,6.0,-999.0,33,-99.99,,,-99.99,584.640015,,2013-09-27 20:52:00,
2013-09-27 17:00:00,79.0,49.0,-100.00,ESE,112,6.0,-999.0,35,-99.99,,,-99.99,436.160004,,2013-09-27 21:00:00,
2013-09-27 17:44:00,79.0,49.0,-100.00,ESE,112,6.0,-999.0,35,-99.99,,,-99.99,436.160004,,2013-09-27 21:44:00,
2013-09-27 17:54:00,79.0,49.0,-100.00,ESE,112,6.0,-999.0,35,-99.99,,,-99.99,436.160004,,2013-09-27 21:54:00,
2013-09-27 18:00:00,79.0,50.0,-100.00,ESE,112,5.0,-999.0,37,-99.99,,,-99.99,350.320007,,2013-09-27 22:00:00,
2013-09-27 18:43:00,79.0,50.0,-100.00,ESE,112,5.0,-999.0,37,-99.99,,,-99.99,350.320007,,2013-09-27 22:43:00,
2013-09-27 18:53:00,79.0,50.0,-100.00,ESE,112,5.0,-999.0,37,-99.99,,,-99.99,350.320007,,2013-09-27 22:53:00,
2013-09-27 19:00:00,77.0,51.0,-100.00,ESE,112,4.0,-999.0,41,-99.99,,,-99.99,154.279999,,2013-09-27 23:00:00,
2013-09-27 19:43:00,77.0,51.0,-100.00,ESE,112,4.0,-999.0,41,-99.99,,,-99.99,154.279999,,2013-09-27 23:43:00,
2013-09-27 19:53:00,77.0,51.0,-100.00,ESE,112,4.0,-999.0,41,-99.99,,,-99.99,154.279999,,2013-09-27 23:53:00,
2013-09-27 21:00:00,62.0,53.0,-100.00,ESE,112,1.0,-999.0,72,-99.99,,,-99.99,0.000000,,2013-09-28 01:00:00,
2013-09-27 21:42:00,62.0,53.0,-100.00,ESE,112,1.0,-999.0,72,-99.99,,,-99.99,0.000000,,2013-09-28 01:42:00,
2013-09-27 21:52:00,62.0,53.0,-100.00,ESE,112,1.0,-999.0,72,-99.99,,,-99.99,0.000000,,2013-09-28 01:52:00,
2013-09-27 22:00:00,57.0,53.0,-100.00,ESE,112,2.0,-999.0,87,-99.99,,,-99.99,0.000000,,2013-09-28 02:00:00,
2013-09-27 22:42:00,57.0,53.0,-100.00,ESE,112,2.0,-999.0,87,-99.99,,,-99.99,0.000000,,2013-09-28 02:42:00,
2013-09-27 22:53:00,57.0,53.0,-100.00,ESE,112,2.0,-999.0,87,-99.99,,,-99.99,0.000000,,2013-09-28 02:53:00,